Time;durP1;ratioP1;P1;durP2;ratioP2;P2;SDS_P1;SDS_P2;PMS_P1;PMS_P2;Temp;Humidity;BMP_temperature;BMP_pressure;BME280_temperature;BME280_humidity;BME280_pressure;Samples;Min_cycle;Max_cycle;Signal;HPM_P1;HPM_P2
2023/01/14 00:02:16;;;;;;;5.15;1.60;;;7.20;99.90;;;;;;5081779;28;20044;-87
2023/01/14 00:04:41;;;;;;;6.15;1.73;;;7.10;99.90;;;;;;5056136;28;20036;-86
2023/01/14 00:07:07;;;;;;;8.38;1.73;;;7.10;99.90;;;;;;5079694;28;20515;-85
2023/01/14 00:09:33;;;;;;;6.88;1.58;;;7.10;99.90;;;;;;5064174;28;20108;-86
2023/01/14 00:11:59;;;;;;;9.90;1.85;;;7.10;99.90;;;;;;5067972;28;20075;-82
2023/01/14 00:14:30;;;;;;;8.98;1.55;;;7.10;99.90;;;;;;5072738;28;20045;-83
2023/01/14 00:16:57;;;;;;;7.32;2.53;;;7.10;99.90;;;;;;5050901;28;20044;-83
2023/01/14 00:19:24;;;;;;;8.25;2.05;;;7.10;99.90;;;;;;5076983;28;20522;-85
2023/01/14 00:21:50;;;;;;;6.93;2.10;;;7.00;99.90;;;;;;5058586;28;20048;-83
2023/01/14 00:24:19;;;;;;;6.97;2.13;;;7.00;99.90;;;;;;5084360;28;20404;-88
2023/01/14 00:26:48;;;;;;;5.45;1.48;;;7.00;99.90;;;;;;5064211;28;20074;-84
2023/01/14 00:29:30;;;;;;;6.25;1.40;;;7.00;99.90;;;;;;5075990;28;20091;-82
2023/01/14 00:31:57;;;;;;;7.13;1.50;;;7.00;99.90;;;;;;5078273;28;20048;-83
2023/01/14 00:34:28;;;;;;;9.45;1.85;;;7.00;99.90;;;;;;5044304;28;20059;-82
2023/01/14 00:36:54;;;;;;;6.88;1.42;;;7.00;99.90;;;;;;5066972;28;20609;-84
2023/01/14 00:39:20;;;;;;;8.60;1.73;;;6.80;99.90;;;;;;5064005;28;20044;-82
2023/01/14 00:41:46;;;;;;;5.63;1.83;;;6.90;99.90;;;;;;5076132;28;20098;-84
2023/01/14 00:44:12;;;;;;;7.97;2.10;;;6.70;99.90;;;;;;5047310;28;20135;-81
2023/01/14 00:46:40;;;;;;;7.03;2.05;;;6.70;99.90;;;;;;5075752;28;20045;-82
2023/01/14 00:49:08;;;;;;;6.40;1.50;;;6.70;99.90;;;;;;5080532;28;20426;-83
2023/01/14 00:51:34;;;;;;;7.40;1.95;;;6.80;99.90;;;;;;5078566;28;20044;-84
2023/01/14 00:54:01;;;;;;;9.05;2.60;;;6.80;99.90;;;;;;5091525;28;20045;-83
2023/01/14 00:56:27;;;;;;;6.00;1.45;;;6.80;99.90;;;;;;5066567;28;20044;-82
2023/01/14 00:58:54;;;;;;;6.22;1.60;;;6.90;99.90;;;;;;5069029;28;20036;-83
2023/01/14 01:01:20;;;;;;;7.72;1.70;;;6.90;99.90;;;;;;5087131;28;20119;-88
2023/01/14 01:03:49;;;;;;;8.52;2.15;;;7.00;99.90;;;;;;5062562;28;20102;-83
2023/01/14 01:06:16;;;;;;;6.68;1.33;;;7.00;99.90;;;;;;5080172;28;20100;-86
2023/01/14 01:08:43;;;;;;;6.47;1.77;;;7.00;99.90;;;;;;5086288;28;20100;-86
2023/01/14 01:11:09;;;;;;;8.95;2.30;;;7.00;99.90;;;;;;5087416;28;20064;-81
2023/01/14 01:13:35;;;;;;;6.22;1.50;;;7.00;99.90;;;;;;5078942;28;20048;-83
2023/01/14 01:16:04;;;;;;;6.63;1.67;;;7.00;99.90;;;;;;5055771;28;20104;-84
2023/01/14 01:18:30;;;;;;;7.47;1.80;;;7.00;99.90;;;;;;5090823;28;20032;-83
2023/01/14 01:21:05;;;;;;;5.43;1.52;;;7.00;99.90;;;;;;5061985;28;20053;-82
2023/01/14 01:23:31;;;;;;;7.22;1.13;;;7.00;99.90;;;;;;5085286;28;20080;-86
2023/01/14 01:26:01;;;;;;;3.22;1.45;;;7.00;99.90;;;;;;5035133;28;20055;-83
2023/01/14 01:28:27;;;;;;;6.22;1.90;;;7.00;99.90;;;;;;5081977;28;20102;-83
2023/01/14 01:30:53;;;;;;;7.15;2.35;;;6.90;99.90;;;;;;5070405;28;20056;-86
2023/01/14 01:33:19;;;;;;;5.40;1.80;;;6.90;99.90;;;;;;5062509;28;20068;-83
2023/01/14 01:35:44;;;;;;;6.72;1.70;;;6.90;99.90;;;;;;5069678;28;20051;-82
2023/01/14 01:38:10;;;;;;;6.88;1.80;;;6.90;99.90;;;;;;5072073;28;20106;-83
2023/01/14 01:40:36;;;;;;;7.45;1.70;;;6.90;99.90;;;;;;5081656;28;20099;-81
2023/01/14 01:43:02;;;;;;;6.28;1.65;;;6.90;99.90;;;;;;5084328;28;20058;-81
2023/01/14 01:45:38;;;;;;;6.50;1.80;;;6.90;99.90;;;;;;5089365;28;20278;-82
2023/01/14 01:48:11;;;;;;;8.48;2.13;;;6.90;99.90;;;;;;5078500;28;20049;-82
2023/01/14 01:50:38;;;;;;;5.38;2.00;;;6.90;99.90;;;;;;5080026;28;20036;-80
2023/01/14 01:53:05;;;;;;;4.63;1.75;;;6.90;99.90;;;;;;5092584;28;20063;-81
2023/01/14 01:55:34;;;;;;;6.82;1.77;;;6.80;99.90;;;;;;5060651;28;20040;-85
2023/01/14 01:58:01;;;;;;;7.20;1.88;;;6.90;99.90;;;;;;5063089;28;20045;-84
2023/01/14 02:00:27;;;;;;;8.50;2.00;;;6.90;99.90;;;;;;5079221;28;20066;-86
2023/01/14 02:03:07;;;;;;;6.00;1.75;;;6.90;99.90;;;;;;5082057;28;20049;-82
2023/01/14 02:05:33;;;;;;;9.57;2.10;;;7.00;99.90;;;;;;5099184;28;20152;-81
2023/01/14 02:07:59;;;;;;;8.95;1.95;;;7.00;99.90;;;;;;5049825;28;20151;-82
2023/01/14 02:10:55;;;;;;;9.90;2.00;;;7.00;99.90;;;;;;5061020;28;20052;-80
2023/01/14 02:13:47;;;;;;;8.13;2.22;;;7.00;99.90;;;;;;5051476;28;20491;-81
2023/01/14 02:16:50;;;;;;;7.72;2.30;;;7.00;99.90;;;;;;5060773;28;20649;-86
2023/01/14 02:19:24;;;;;;;7.50;1.83;;;6.90;99.90;;;;;;5076257;28;20047;-84
2023/01/14 02:22:15;;;;;;;10.98;1.98;;;6.90;99.90;;;;;;5060513;28;20087;-79
2023/01/14 02:25:03;;;;;;;8.45;1.95;;;6.90;99.90;;;;;;5078741;28;20059;-82
2023/01/14 02:27:59;;;;;;;6.50;1.80;;;6.90;99.90;;;;;;5071921;28;20563;-83
2023/01/14 02:30:43;;;;;;;8.30;1.90;;;6.80;99.90;;;;;;5090311;28;20105;-83
2023/01/14 02:33:30;;;;;;;8.32;2.55;;;6.90;99.90;;;;;;5078946;28;20473;-83
2023/01/14 02:36:21;;;;;;;6.88;1.95;;;6.90;99.90;;;;;;5070264;28;20050;-85
2023/01/14 02:38:55;;;;;;;6.53;1.80;;;6.80;99.90;;;;;;5060557;28;20408;-84
2023/01/14 02:44:32;;;;;;;7.60;2.13;;;6.80;99.90;;;;;;5058424;28;20056;-84
2023/01/14 02:46:59;;;;;;;5.32;1.67;;;6.90;99.90;;;;;;5059658;28;20048;-86
2023/01/14 02:49:27;;;;;;;8.88;2.13;;;6.90;99.90;;;;;;5083363;28;20068;-81
2023/01/14 02:51:56;;;;;;;6.95;1.95;;;6.80;99.90;;;;;;5076531;28;20055;-81
2023/01/14 02:54:22;;;;;;;9.60;1.85;;;6.90;99.90;;;;;;5078077;28;20045;-79
2023/01/14 02:56:48;;;;;;;6.60;2.08;;;6.90;99.90;;;;;;5061189;28;20067;-81
2023/01/14 02:59:19;;;;;;;5.10;1.58;;;6.90;99.90;;;;;;5077917;28;20048;-83
2023/01/14 03:02:05;;;;;;;6.10;1.27;;;7.00;99.90;;;;;;5058280;28;20047;-80
2023/01/14 03:04:37;;;;;;;8.30;1.85;;;7.00;99.90;;;;;;5076208;28;20101;-81
2023/01/14 03:07:19;;;;;;;7.47;2.10;;;7.00;99.90;;;;;;5078639;28;20061;-81
2023/01/14 03:10:08;;;;;;;3.47;1.30;;;7.00;99.90;;;;;;5077372;28;20043;-80
2023/01/14 03:12:46;;;;;;;8.05;1.85;;;7.00;99.90;;;;;;5055378;28;20083;-82
2023/01/14 03:15:25;;;;;;;5.15;1.40;;;7.00;99.90;;;;;;5082391;28;20080;-87
2023/01/14 03:18:04;;;;;;;10.90;3.00;;;7.00;99.90;;;;;;5076672;28;20048;-86
2023/01/14 03:20:33;;;;;;;7.38;2.00;;;7.00;99.90;;;;;;5077633;28;20117;-84
2023/01/14 03:23:04;;;;;;;8.30;1.90;;;7.00;99.90;;;;;;5061315;28;20048;-82
2023/01/14 03:25:32;;;;;;;6.97;2.15;;;7.00;99.90;;;;;;5076594;28;20044;-82
2023/01/14 03:28:00;;;;;;;7.47;2.20;;;7.00;99.90;;;;;;5061136;28;20060;-85
2023/01/14 03:30:33;;;;;;;4.72;1.40;;;7.00;99.90;;;;;;5074381;28;20040;-88
2023/01/14 03:33:11;;;;;;;4.85;1.70;;;7.00;99.90;;;;;;5061191;28;20037;-85
2023/01/14 03:35:42;;;;;;;8.40;1.85;;;6.90;99.90;;;;;;5060286;28;20056;-83
2023/01/14 03:38:33;;;;;;;6.82;1.73;;;6.80;99.90;;;;;;5075883;28;20062;-82
2023/01/14 03:41:02;;;;;;;5.43;1.42;;;6.60;99.90;;;;;;5078378;28;20404;-80
2023/01/14 03:43:49;;;;;;;6.78;1.42;;;6.50;99.90;;;;;;5058296;28;20350;-83
2023/01/14 03:46:16;;;;;;;3.95;1.33;;;6.50;99.90;;;;;;5082650;28;20044;-82
2023/01/14 03:48:41;;;;;;;7.70;1.92;;;6.40;99.90;;;;;;5084710;28;20105;-81
2023/01/14 03:51:43;;;;;;;5.63;1.65;;;6.40;99.90;;;;;;5059033;28;20096;-79
2023/01/14 03:54:21;;;;;;;7.32;1.63;;;6.30;99.90;;;;;;5019820;28;20103;-81
2023/01/14 03:57:07;;;;;;;6.18;1.75;;;6.30;99.90;;;;;;5052609;28;20052;-79
2023/01/14 03:59:59;;;;;;;5.23;1.43;;;6.20;99.90;;;;;;5059369;28;20451;-80
2023/01/14 04:02:26;;;;;;;7.55;2.10;;;6.10;99.90;;;;;;5082090;28;20290;-81
2023/01/14 04:04:54;;;;;;;4.28;1.45;;;6.10;99.90;;;;;;5060049;28;20117;-81
2023/01/14 04:07:20;;;;;;;8.43;1.65;;;6.10;99.90;;;;;;5088227;28;20385;-80
2023/01/14 04:09:45;;;;;;;3.78;1.60;;;6.10;99.90;;;;;;5077417;28;20044;-79
2023/01/14 04:12:11;;;;;;;6.38;1.77;;;6.10;99.90;;;;;;5087453;28;20048;-80
2023/01/14 04:17:21;;;;;;;6.88;1.60;;;6.10;99.90;;;;;;5059641;28;20048;-79
2023/01/14 04:19:47;;;;;;;5.15;1.52;;;6.00;99.90;;;;;;5084878;28;20032;-80
2023/01/14 04:22:13;;;;;;;5.47;1.50;;;6.10;99.90;;;;;;5091786;28;20059;-80
2023/01/14 04:24:38;;;;;;;7.75;2.22;;;6.10;99.90;;;;;;5068021;28;20035;-82
2023/01/14 04:27:04;;;;;;;6.60;1.83;;;6.00;99.90;;;;;;5068742;28;20641;-80
2023/01/14 04:29:30;;;;;;;5.82;1.83;;;6.00;99.90;;;;;;5082254;28;20051;-82
2023/01/14 04:31:56;;;;;;;7.32;1.70;;;6.00;99.90;;;;;;5051074;28;20110;-81
2023/01/14 04:34:21;;;;;;;7.88;1.98;;;6.00;99.90;;;;;;5080482;28;20059;-81
2023/01/14 04:36:47;;;;;;;7.07;1.95;;;6.00;99.90;;;;;;5083934;28;20076;-80
2023/01/14 04:39:12;;;;;;;9.02;1.98;;;6.00;99.90;;;;;;5088042;28;20057;-83
2023/01/14 04:44:22;;;;;;;11.10;2.40;;;6.00;99.90;;;;;;5083590;28;20048;-80
2023/01/14 04:46:48;;;;;;;8.63;2.03;;;6.00;99.90;;;;;;5073924;28;20044;-78
2023/01/14 04:49:14;;;;;;;8.40;2.53;;;5.90;99.90;;;;;;5068727;28;20044;-78
2023/01/14 04:51:39;;;;;;;9.73;2.90;;;5.90;99.90;;;;;;5082726;28;20040;-79
2023/01/14 04:54:05;;;;;;;7.00;2.38;;;6.00;99.90;;;;;;5069504;28;20455;-83
2023/01/14 04:56:31;;;;;;;14.90;2.95;;;5.90;99.90;;;;;;5048888;28;20044;-79
2023/01/14 04:59:01;;;;;;;7.53;2.65;;;5.90;99.90;;;;;;5067346;28;20060;-82
2023/01/14 05:01:27;;;;;;;8.43;2.03;;;5.90;99.90;;;;;;5066520;28;20086;-80
2023/01/14 05:03:54;;;;;;;9.93;2.92;;;5.90;99.90;;;;;;5082037;28;20056;-80
2023/01/14 05:06:20;;;;;;;7.45;2.20;;;5.80;99.90;;;;;;5066499;28;20496;-82
2023/01/14 05:08:47;;;;;;;9.35;2.47;;;5.80;99.90;;;;;;5081087;28;20092;-81
2023/01/14 05:11:13;;;;;;;6.70;2.17;;;5.80;99.90;;;;;;5083656;28;20077;-80
2023/01/14 05:13:39;;;;;;;12.82;3.33;;;5.80;99.90;;;;;;5080601;28;20577;-81
2023/01/14 05:16:05;;;;;;;10.52;2.30;;;5.80;99.90;;;;;;5082945;28;20067;-78
2023/01/14 05:18:30;;;;;;;7.13;2.70;;;5.70;99.90;;;;;;5084851;28;20052;-81
2023/01/14 05:20:56;;;;;;;8.40;2.42;;;5.80;99.90;;;;;;5087497;28;20052;-78
2023/01/14 05:23:22;;;;;;;8.50;2.47;;;5.70;99.90;;;;;;5066724;28;20365;-79
2023/01/14 05:25:50;;;;;;;7.93;2.13;;;5.80;99.90;;;;;;5080999;28;20024;-79
2023/01/14 05:28:17;;;;;;;9.60;2.40;;;5.80;99.90;;;;;;5067126;28;20106;-81
2023/01/14 05:30:43;;;;;;;8.93;2.63;;;5.80;99.90;;;;;;5070189;28;20044;-78
2023/01/14 05:33:09;;;;;;;8.82;2.97;;;5.80;99.90;;;;;;5089876;28;20043;-80
2023/01/14 05:35:35;;;;;;;8.43;2.47;;;5.70;99.90;;;;;;5099281;28;20048;-82
2023/01/14 05:38:01;;;;;;;9.82;2.33;;;5.70;99.90;;;;;;5083608;28;20439;-82
2023/01/14 05:40:26;;;;;;;11.15;2.75;;;5.70;99.90;;;;;;5090019;28;20048;-81
2023/01/14 05:45:48;;;;;;;11.07;3.15;;;5.70;99.90;;;;;;5080005;28;20044;-80
2023/01/14 05:48:24;;;;;;;10.13;3.20;;;5.70;99.90;;;;;;5060847;28;20137;-78
2023/01/14 05:50:55;;;;;;;8.32;3.38;;;5.70;99.90;;;;;;5061891;28;20044;-81
2023/01/14 05:53:22;;;;;;;10.50;3.33;;;5.80;99.90;;;;;;5079654;28;20044;-79
2023/01/14 05:55:49;;;;;;;10.40;2.97;;;5.70;99.90;;;;;;5085080;28;20044;-82
2023/01/14 05:58:15;;;;;;;11.40;3.70;;;5.70;99.90;;;;;;5078003;28;20580;-79
2023/01/14 06:06:20;;;;;;;11.88;2.80;;;5.70;99.90;;;;;;5068824;28;20041;-80
2023/01/14 06:08:47;;;;;;;10.98;3.90;;;5.70;99.90;;;;;;5077833;28;20047;-79
2023/01/14 06:11:12;;;;;;;12.93;3.92;;;5.70;99.90;;;;;;5079002;28;20078;-77
2023/01/14 06:13:38;;;;;;;9.13;3.03;;;5.70;99.90;;;;;;5061860;28;20068;-80
2023/01/14 06:16:07;;;;;;;14.57;3.03;;;5.70;99.90;;;;;;5058954;28;20436;-79
2023/01/14 06:18:38;;;;;;;11.60;3.42;;;5.70;99.90;;;;;;5081671;28;20040;-79
2023/01/14 06:21:08;;;;;;;11.05;3.67;;;5.70;99.90;;;;;;5077326;28;20044;-80
2023/01/14 06:23:33;;;;;;;14.68;3.72;;;5.70;99.90;;;;;;5053319;28;20029;-79
2023/01/14 06:25:59;;;;;;;13.10;3.28;;;5.60;99.90;;;;;;5081282;28;20044;-80
2023/01/14 06:28:28;;;;;;;10.98;2.88;;;5.60;99.90;;;;;;5062658;28;20049;-80
2023/01/14 06:30:54;;;;;;;13.60;3.50;;;5.60;99.90;;;;;;5078012;28;20056;-80
2023/01/14 06:33:20;;;;;;;12.25;3.00;;;5.70;99.90;;;;;;5078413;28;20049;-81
2023/01/14 06:35:46;;;;;;;10.63;3.55;;;5.60;99.90;;;;;;5087931;28;20055;-81
2023/01/14 06:38:12;;;;;;;8.63;2.70;;;5.60;99.90;;;;;;5079193;28;20387;-81
2023/01/14 06:40:39;;;;;;;10.70;3.05;;;5.60;99.90;;;;;;5062063;28;20033;-81
2023/01/14 06:43:06;;;;;;;10.35;2.42;;;5.60;99.90;;;;;;5087280;28;20500;-78
2023/01/14 06:45:32;;;;;;;9.48;2.58;;;5.60;99.90;;;;;;5067136;28;20547;-79
2023/01/14 06:47:58;;;;;;;9.05;3.10;;;5.60;99.90;;;;;;5077236;28;20043;-81
2023/01/14 06:50:24;;;;;;;11.57;3.55;;;5.60;99.90;;;;;;5076807;28;20186;-80
2023/01/14 06:52:49;;;;;;;9.90;3.30;;;5.60;99.90;;;;;;5077067;28;20083;-80
2023/01/14 06:55:16;;;;;;;14.88;4.35;;;5.50;99.90;;;;;;5076705;28;20044;-82
2023/01/14 06:57:42;;;;;;;8.10;3.15;;;5.60;99.90;;;;;;5078630;28;20045;-81
2023/01/14 07:00:10;;;;;;;7.78;2.35;;;5.60;99.90;;;;;;5076876;28;20500;-84
2023/01/14 07:02:36;;;;;;;11.15;2.88;;;5.60;99.90;;;;;;5078634;28;20049;-80
2023/01/14 07:05:01;;;;;;;8.35;2.35;;;5.60;99.90;;;;;;5060003;28;20070;-81
2023/01/14 07:07:27;;;;;;;12.70;3.20;;;5.60;99.90;;;;;;5077639;28;20045;-79
2023/01/14 07:09:53;;;;;;;14.90;3.60;;;5.60;99.90;;;;;;5077967;28;20411;-81
2023/01/14 07:12:18;;;;;;;15.27;4.07;;;5.70;99.90;;;;;;5076365;28;20040;-82
2023/01/14 07:14:44;;;;;;;9.82;2.92;;;5.70;99.90;;;;;;5078249;28;20131;-81
2023/01/14 07:17:10;;;;;;;14.48;3.05;;;5.70;99.90;;;;;;5081521;28;20048;-79
2023/01/14 07:19:35;;;;;;;12.90;4.35;;;5.70;99.90;;;;;;5089482;28;20070;-78
2023/01/14 07:22:01;;;;;;;12.43;3.47;;;5.70;99.90;;;;;;5062062;28;20051;-82
2023/01/14 07:24:26;;;;;;;15.25;3.25;;;5.80;99.90;;;;;;5085439;28;20533;-81
2023/01/14 07:26:52;;;;;;;8.02;2.55;;;5.80;99.90;;;;;;5094769;28;21053;-79
2023/01/14 07:29:18;;;;;;;14.40;2.97;;;5.80;99.90;;;;;;5066709;28;20052;-80
2023/01/14 07:31:44;;;;;;;11.05;3.25;;;5.80;99.90;;;;;;5096466;28;20066;-80
2023/01/14 07:34:09;;;;;;;9.98;2.95;;;5.90;99.90;;;;;;5076224;28;20048;-81
2023/01/14 07:36:35;;;;;;;9.10;2.72;;;5.80;99.90;;;;;;5061126;28;20052;-78
2023/01/14 07:39:00;;;;;;;15.10;3.15;;;5.90;99.90;;;;;;5075572;28;20051;-82
2023/01/14 07:41:26;;;;;;;12.57;3.45;;;5.90;99.90;;;;;;5079521;28;20047;-85
2023/01/14 07:43:52;;;;;;;10.65;2.83;;;5.90;99.90;;;;;;5068893;28;20073;-83
2023/01/14 07:46:18;;;;;;;16.27;5.75;;;5.90;99.90;;;;;;5069965;28;20043;-80
2023/01/14 07:48:44;;;;;;;9.05;3.08;;;6.00;99.90;;;;;;5089902;28;20040;-80
2023/01/14 07:51:12;;;;;;;11.65;3.00;;;6.00;99.90;;;;;;5075698;28;20072;-84
2023/01/14 07:53:38;;;;;;;9.00;3.33;;;6.00;99.90;;;;;;5077570;28;20052;-79
2023/01/14 07:56:06;;;;;;;11.40;3.42;;;6.00;99.90;;;;;;5071666;28;20046;-82
2023/01/14 07:58:33;;;;;;;9.38;3.50;;;6.00;99.90;;;;;;5080148;28;20068;-79
2023/01/14 08:01:04;;;;;;;8.27;3.38;;;6.00;99.90;;;;;;5059070;28;20044;-84
2023/01/14 08:03:29;;;;;;;11.23;2.85;;;6.10;99.90;;;;;;5060065;28;20060;-83
2023/01/14 08:05:55;;;;;;;10.65;3.17;;;6.10;99.90;;;;;;5076704;28;20059;-83
2023/01/14 08:08:21;;;;;;;7.57;2.53;;;6.10;99.90;;;;;;5074717;28;20037;-84
2023/01/14 08:10:46;;;;;;;11.32;3.03;;;6.10;99.90;;;;;;5058697;28;20037;-83
2023/01/14 08:13:13;;;;;;;8.30;2.33;;;6.10;99.90;;;;;;5075271;28;20090;-81
2023/01/14 08:15:39;;;;;;;9.07;2.58;;;6.10;99.90;;;;;;5077270;28;20410;-84
2023/01/14 08:18:04;;;;;;;9.73;2.80;;;6.10;99.90;;;;;;5059169;28;20037;-84
2023/01/14 08:20:30;;;;;;;13.27;2.58;;;6.20;99.90;;;;;;5059394;28;20041;-83
2023/01/14 08:22:57;;;;;;;12.57;2.90;;;6.20;99.90;;;;;;5076887;28;20061;-80
2023/01/14 08:25:23;;;;;;;12.73;3.35;;;6.20;99.90;;;;;;5058329;28;20110;-81
2023/01/14 08:27:49;;;;;;;15.30;3.92;;;6.00;99.90;;;;;;5077426;28;20056;-84
2023/01/14 08:30:15;;;;;;;9.15;2.45;;;6.30;99.90;;;;;;5074810;28;20045;-80
2023/01/14 08:32:41;;;;;;;9.15;2.20;;;6.20;99.90;;;;;;5077044;28;20078;-80
2023/01/14 08:35:07;;;;;;;11.82;2.70;;;6.30;99.90;;;;;;5058919;28;20044;-83
2023/01/14 08:37:32;;;;;;;11.43;2.88;;;6.20;99.90;;;;;;5039937;28;20112;-82
2023/01/14 08:39:58;;;;;;;11.43;2.90;;;6.20;99.90;;;;;;5092905;28;20045;-81
2023/01/14 08:42:24;;;;;;;8.25;2.53;;;6.20;99.90;;;;;;5075778;28;20404;-87
2023/01/14 08:44:50;;;;;;;10.55;2.45;;;6.20;99.90;;;;;;5076907;28;20108;-81
2023/01/14 08:47:15;;;;;;;8.23;2.50;;;6.20;99.90;;;;;;5074983;28;20143;-80
2023/01/14 08:49:41;;;;;;;9.05;2.67;;;6.10;99.90;;;;;;5043907;28;20045;-82
2023/01/14 08:52:07;;;;;;;13.77;2.63;;;6.10;99.90;;;;;;5075489;28;20049;-84
2023/01/14 08:54:33;;;;;;;10.20;2.25;;;6.10;99.90;;;;;;5076155;28;20150;-83
2023/01/14 08:56:58;;;;;;;8.63;2.42;;;6.00;99.90;;;;;;5076513;28;20044;-85
2023/01/14 08:59:24;;;;;;;11.48;3.30;;;6.10;99.90;;;;;;5059047;28;20047;-85
2023/01/14 09:01:50;;;;;;;11.75;2.30;;;6.10;99.90;;;;;;5077140;28;20579;-84
2023/01/14 09:04:16;;;;;;;9.85;2.40;;;6.10;99.90;;;;;;5055613;28;20073;-82
2023/01/14 09:17:45;;;;;;;8.27;2.15;;;6.10;99.90;;;;;;5078344;28;20044;-84
2023/01/14 09:20:15;;;;;;;8.65;3.05;;;6.00;99.90;;;;;;5079729;28;20044;-86
2023/01/14 09:22:41;;;;;;;8.82;3.35;;;6.00;99.90;;;;;;5060723;28;20121;-83
2023/01/14 09:25:07;;;;;;;12.10;3.30;;;6.10;99.90;;;;;;5077414;28;20905;-86
2023/01/14 09:27:32;;;;;;;9.93;2.35;;;6.00;99.90;;;;;;5079777;28;20053;-81
2023/01/14 09:29:58;;;;;;;6.63;2.25;;;6.00;99.90;;;;;;5044379;28;20472;-82
2023/01/14 09:32:24;;;;;;;7.68;2.58;;;6.00;99.90;;;;;;5063646;28;20075;-85
2023/01/14 09:34:52;;;;;;;10.05;2.63;;;6.00;99.90;;;;;;5075106;28;20047;-84
2023/01/14 09:37:20;;;;;;;11.77;2.70;;;6.00;99.90;;;;;;5075104;28;20102;-86
2023/01/14 09:39:47;;;;;;;7.82;2.13;;;6.00;99.90;;;;;;5066967;28;20042;-82
2023/01/14 09:42:18;;;;;;;7.95;2.15;;;6.10;99.90;;;;;;5058305;28;20082;-80
2023/01/14 09:44:44;;;;;;;8.20;2.63;;;6.10;99.90;;;;;;5061528;28;20047;-83
2023/01/14 09:47:13;;;;;;;12.18;2.42;;;6.00;99.90;;;;;;5057219;28;20044;-82
2023/01/14 09:49:40;;;;;;;9.00;2.33;;;6.10;99.90;;;;;;5062563;28;20044;-81
2023/01/14 09:52:33;;;;;;;8.32;2.10;;;6.10;99.90;;;;;;5077166;28;20412;-86
2023/01/14 09:55:25;;;;;;;6.85;2.13;;;6.10;99.90;;;;;;5078026;28;20061;-84
2023/01/14 09:58:02;;;;;;;8.95;2.00;;;6.10;99.90;;;;;;5062765;28;20048;-83
2023/01/14 10:01:09;;;;;;;6.90;2.72;;;6.20;99.90;;;;;;5077716;28;20147;-78
2023/01/14 10:03:49;;;;;;;9.45;2.17;;;6.20;99.90;;;;;;5022847;28;20248;-82
2023/01/14 10:06:17;;;;;;;6.63;1.80;;;6.10;99.90;;;;;;5079161;28;20044;-84
2023/01/14 10:08:58;;;;;;;5.78;2.20;;;6.20;99.90;;;;;;5076330;28;20056;-84
2023/01/14 10:11:27;;;;;;;9.45;2.78;;;6.20;99.90;;;;;;5077957;28;20504;-81
2023/01/14 10:14:15;;;;;;;8.40;2.67;;;6.20;99.90;;;;;;5077601;28;20435;-83
2023/01/14 10:16:45;;;;;;;9.68;3.17;;;6.20;99.90;;;;;;5067497;28;20057;-85
2023/01/14 10:19:20;;;;;;;8.75;3.03;;;6.20;99.90;;;;;;5061453;28;20409;-82
2023/01/14 10:22:14;;;;;;;7.57;3.30;;;6.20;99.90;;;;;;5077488;28;20139;-84
2023/01/14 10:24:42;;;;;;;8.57;2.90;;;6.20;99.90;;;;;;5111857;28;20078;-87
2023/01/14 10:27:16;;;;;;;7.63;3.20;;;6.20;99.90;;;;;;5078508;28;20455;-87
2023/01/14 10:29:42;;;;;;;6.82;3.55;;;6.20;99.90;;;;;;5077264;28;20479;-86
2023/01/14 10:32:13;;;;;;;9.20;3.15;;;6.20;99.90;;;;;;5062148;28;20033;-79
2023/01/14 10:34:46;;;;;;;6.85;3.13;;;6.30;99.90;;;;;;5076713;28;20059;-81
2023/01/14 10:37:13;;;;;;;6.00;3.28;;;6.30;99.90;;;;;;5061741;28;20496;-81
2023/01/14 10:39:46;;;;;;;6.40;3.05;;;6.30;99.90;;;;;;5077746;28;20036;-81
2023/01/14 10:42:12;;;;;;;14.43;4.43;;;6.30;99.90;;;;;;5077169;28;20048;-85
2023/01/14 10:44:43;;;;;;;7.25;3.55;;;6.30;99.90;;;;;;5078905;28;20057;-85
2023/01/14 10:47:14;;;;;;;6.22;3.10;;;6.30;99.90;;;;;;5076953;28;20052;-81
2023/01/14 10:50:06;;;;;;;6.47;3.00;;;6.40;99.90;;;;;;5078269;28;20052;-85
2023/01/14 10:52:33;;;;;;;7.65;3.20;;;6.40;99.90;;;;;;5077441;28;20519;-80
2023/01/14 10:55:12;;;;;;;7.65;3.42;;;6.40;99.90;;;;;;5076827;28;20048;-82
2023/01/14 10:57:45;;;;;;;5.72;2.92;;;6.50;99.90;;;;;;5078787;28;20048;-80
2023/01/14 11:00:31;;;;;;;5.72;2.85;;;6.50;99.90;;;;;;5076482;28;20499;-83
2023/01/14 11:02:59;;;;;;;8.00;3.20;;;6.50;99.90;;;;;;5095052;28;20052;-83
2023/01/14 11:05:27;;;;;;;5.10;2.50;;;6.60;99.90;;;;;;5066982;28;20052;-80
2023/01/14 11:07:54;;;;;;;4.90;2.60;;;6.70;99.90;;;;;;5076878;28;20045;-82
2023/01/14 11:10:28;;;;;;;3.92;2.40;;;6.70;99.90;;;;;;5061334;28;20074;-79
2023/01/14 11:13:13;;;;;;;6.65;2.00;;;6.80;99.90;;;;;;5059515;28;20110;-79
2023/01/14 11:15:41;;;;;;;3.35;1.95;;;6.80;99.90;;;;;;5064223;28;20058;-80
2023/01/14 11:18:19;;;;;;;6.07;2.28;;;6.90;99.90;;;;;;5077387;28;20044;-81
2023/01/14 11:21:04;;;;;;;3.67;1.70;;;6.90;99.90;;;;;;5076069;28;20100;-83
2023/01/14 11:23:32;;;;;;;4.57;1.75;;;6.90;99.90;;;;;;5078280;28;20076;-81
2023/01/14 11:26:07;;;;;;;3.13;1.73;;;7.00;99.90;;;;;;5075820;28;20048;-80
2023/01/14 11:28:37;;;;;;;4.10;1.77;;;7.00;99.90;;;;;;5077797;28;20654;-83
2023/01/14 11:31:03;;;;;;;3.40;1.80;;;7.10;99.90;;;;;;5060804;28;20791;-82
2023/01/14 11:33:32;;;;;;;2.80;1.52;;;7.10;99.90;;;;;;5076348;28;20106;-80
2023/01/14 11:35:58;;;;;;;4.72;1.52;;;7.10;99.90;;;;;;5060921;28;20075;-81
2023/01/14 11:38:26;;;;;;;4.53;1.42;;;7.10;99.90;;;;;;5075926;28;20635;-84
2023/01/14 11:44:13;;;;;;;4.18;1.90;;;7.20;99.90;;;;;;5072534;28;20049;-79
2023/01/14 11:46:42;;;;;;;2.58;1.20;;;7.10;99.90;;;;;;5053477;28;20063;-78
2023/01/14 11:49:19;;;;;;;4.68;1.50;;;7.20;99.90;;;;;;5073480;28;20443;-80
2023/01/14 11:52:06;;;;;;;3.15;1.52;;;7.20;99.90;;;;;;5075094;28;20059;-80
2023/01/14 11:54:35;;;;;;;3.58;1.35;;;7.20;99.90;;;;;;5076448;28;20041;-79
2023/01/14 11:57:02;;;;;;;3.80;1.08;;;7.10;99.90;;;;;;5060265;28;20522;-83
2023/01/14 11:59:29;;;;;;;3.08;1.30;;;7.20;99.90;;;;;;5042761;28;20107;-82
2023/01/14 12:02:08;;;;;;;2.00;1.40;;;7.20;99.90;;;;;;5077543;28;20055;-83
2023/01/14 12:04:41;;;;;;;6.07;1.55;;;7.20;99.90;;;;;;5058484;28;20048;-82
2023/01/14 12:07:12;;;;;;;3.92;1.58;;;7.20;99.90;;;;;;5076803;28;20048;-83
2023/01/14 12:09:47;;;;;;;3.17;1.75;;;7.20;99.90;;;;;;5076411;28;20101;-81
2023/01/14 12:12:16;;;;;;;4.00;1.50;;;7.20;99.90;;;;;;5075700;28;20044;-81
2023/01/14 12:17:34;;;;;;;4.88;1.95;;;7.30;99.90;;;;;;5075610;28;20503;-82
2023/01/14 12:20:11;;;;;;;1.67;1.10;;;7.30;99.90;;;;;;5077282;28;20047;-84
2023/01/14 12:22:46;;;;;;;2.83;1.52;;;7.30;99.90;;;;;;5110319;28;20043;-81
2023/01/14 12:25:17;;;;;;;3.65;1.75;;;7.40;99.90;;;;;;5058484;28;20044;-75
2023/01/14 12:28:02;;;;;;;2.42;1.40;;;7.40;99.90;;;;;;5077305;28;20060;-75
2023/01/14 12:30:54;;;;;;;2.22;1.30;;;7.40;99.90;;;;;;5075471;28;20044;-81
2023/01/14 12:33:23;;;;;;;3.28;1.60;;;7.40;99.90;;;;;;5075804;28;20044;-75
2023/01/14 12:36:00;;;;;;;3.55;1.45;;;7.40;99.90;;;;;;5059743;28;20413;-74
2023/01/14 12:47:12;;;;;;;2.90;1.48;;;7.60;99.90;;;;;;5079111;28;20060;-81
2023/01/14 12:49:39;;;;;;;2.70;1.27;;;7.60;99.90;;;;;;5064828;28;20536;-81
2023/01/14 12:52:06;;;;;;;4.13;1.42;;;7.70;99.90;;;;;;5059991;28;20048;-79
2023/01/14 12:54:34;;;;;;;2.50;1.50;;;7.70;99.90;;;;;;5079784;28;20090;-78
2023/01/14 12:57:01;;;;;;;5.00;2.30;;;7.70;99.90;;;;;;5079929;28;20094;-76
2023/01/14 12:59:43;;;;;;;1.98;1.00;;;7.70;99.90;;;;;;5078285;28;20040;-78
2023/01/14 13:02:21;;;;;;;1.80;1.10;;;7.70;99.90;;;;;;5080212;28;20120;-78
2023/01/14 13:05:08;;;;;;;5.05;1.48;;;7.80;99.90;;;;;;5080232;28;20426;-78
2023/01/14 13:07:37;;;;;;;2.15;1.30;;;7.90;99.90;;;;;;5075948;28;20041;-75
2023/01/14 13:10:08;;;;;;;2.60;1.17;;;7.90;99.90;;;;;;5076645;28;20048;-76
2023/01/14 13:12:37;;;;;;;1.90;0.90;;;8.00;99.90;;;;;;5074944;28;20040;-76
2023/01/14 13:15:07;;;;;;;2.70;1.15;;;8.00;99.90;;;;;;5062930;28;20498;-74
2023/01/14 13:17:35;;;;;;;3.20;1.30;;;8.00;99.90;;;;;;5072187;28;20113;-78
2023/01/14 13:20:02;;;;;;;1.75;0.90;;;8.00;99.90;;;;;;5075866;28;20052;-76
2023/01/14 13:22:43;;;;;;;1.92;0.93;;;8.10;99.90;;;;;;5071179;28;20044;-79
2023/01/14 13:25:34;;;;;;;2.65;1.25;;;8.10;99.90;;;;;;5102711;28;20057;-76
2023/01/14 13:28:03;;;;;;;2.58;1.08;;;8.10;99.90;;;;;;5075680;28;20057;-77
2023/01/14 13:30:29;;;;;;;1.98;1.08;;;8.10;99.90;;;;;;5101369;28;20049;-75
2023/01/14 13:33:00;;;;;;;3.47;1.10;;;8.20;99.90;;;;;;5076352;28;20045;-77
2023/01/14 13:35:28;;;;;;;1.50;1.02;;;8.20;99.90;;;;;;5071622;28;20053;-76
2023/01/14 13:38:15;;;;;;;1.50;0.80;;;8.30;99.90;;;;;;5078322;28;20044;-76
2023/01/14 13:40:50;;;;;;;1.35;0.82;;;8.30;99.90;;;;;;5079908;28;20040;-85
2023/01/14 13:43:25;;;;;;;2.07;1.10;;;8.40;99.90;;;;;;5077993;28;20524;-78
2023/01/14 13:45:58;;;;;;;1.45;0.80;;;8.50;99.90;;;;;;5079179;28;20303;-77
2023/01/14 13:49:01;;;;;;;2.00;0.90;;;8.50;99.90;;;;;;5079823;28;20148;-76
2023/01/14 13:51:38;;;;;;;2.78;0.80;;;8.50;99.90;;;;;;5079229;28;20060;-79
2023/01/14 13:54:28;;;;;;;2.30;0.90;;;8.50;99.90;;;;;;5079187;28;20044;-75
2023/01/14 13:57:17;;;;;;;1.63;0.63;;;8.50;99.90;;;;;;5072387;28;20060;-78